Time;durP1;ratioP1;P1;durP2;ratioP2;P2;SDS_P1;SDS_P2;PMS_P1;PMS_P2;Temp;Humidity;BMP_temperature;BMP_pressure;BME280_temperature;BME280_humidity;BME280_pressure;Samples;Min_cycle;Max_cycle;Signal;HPM_P1;HPM_P2
2022/09/06 00:00:50;;;;;;;;;;;;;;;25.70;49.52;101601.44;104864;1306;63241;-87
2022/09/06 00:03:16;;;;;;;;;;;;;;;25.69;49.44;101599.33;104899;1305;62018;-85
2022/09/06 00:05:43;;;;;;;;;;;;;;;25.69;49.50;101594.28;104855;1305;62100;-82
2022/09/06 00:08:08;;;;;;;;;;;;;;;25.69;49.48;101592.64;104844;1305;61986;-82
2022/09/06 00:10:34;;;;;;;;;;;;;;;25.69;49.41;101595.36;104914;1304;62097;-82
2022/09/06 00:13:03;;;;;;;;;;;;;;;25.69;49.52;101595.02;104955;1305;62127;-82
2022/09/06 00:15:29;;;;;;;;;;;;;;;25.69;49.46;101597.36;104879;1305;72915;-84
2022/09/06 00:17:56;;;;;;;;;;;;;;;25.69;49.55;101598.63;104834;1304;62292;-81
2022/09/06 00:20:25;;;;;;;;;;;;;;;25.69;49.44;101600.45;104891;1304;61950;-83
2022/09/06 00:22:55;;;;;;;;;;;;;;;25.69;49.52;101600.42;104899;1305;61973;-82
2022/09/06 00:25:21;;;;;;;;;;;;;;;25.69;49.40;101602.61;104876;1305;74459;-82
2022/09/06 00:27:46;;;;;;;;;;;;;;;25.69;49.62;101601.88;104904;1304;62222;-85
2022/09/06 00:30:12;;;;;;;;;;;;;;;25.68;49.46;101598.48;104867;1304;62232;-83
2022/09/06 00:32:37;;;;;;;;;;;;;;;25.68;49.45;101596.15;104902;1305;62091;-85
2022/09/06 00:35:03;;;;;;;;;;;;;;;25.68;49.36;101589.85;104870;1301;62120;-83
2022/09/06 00:37:28;;;;;;;;;;;;;;;25.68;49.53;101592.19;104923;1304;62173;-83
2022/09/06 00:39:54;;;;;;;;;;;;;;;25.68;49.35;101591.13;104880;1304;62078;-83
2022/09/06 00:42:19;;;;;;;;;;;;;;;25.68;49.51;101590.77;104873;1305;62116;-83
2022/09/06 00:44:45;;;;;;;;;;;;;;;25.68;49.34;101586.99;104864;1304;62060;-82
2022/09/06 00:47:10;;;;;;;;;;;;;;;25.68;49.47;101587.00;104901;1305;62109;-83
2022/09/06 00:49:38;;;;;;;;;;;;;;;25.67;49.52;101592.09;104949;1305;62172;-83
2022/09/06 00:52:04;;;;;;;;;;;;;;;25.67;49.52;101593.54;104857;1305;76621;-84
2022/09/06 00:54:29;;;;;;;;;;;;;;;25.67;49.51;101597.12;104893;1305;62078;-82
2022/09/06 00:56:55;;;;;;;;;;;;;;;25.67;49.57;101596.42;104889;1304;62070;-83
2022/09/06 00:59:20;;;;;;;;;;;;;;;25.67;49.53;101595.71;104895;1303;62139;-83
2022/09/06 01:01:46;;;;;;;;;;;;;;;25.67;49.61;101596.62;104840;1305;62074;-83
2022/09/06 01:04:12;;;;;;;;;;;;;;;25.67;49.45;101596.61;104880;1304;62207;-83
2022/09/06 01:06:56;;;;;;;;;;;;;;;25.67;49.18;101593.77;104910;1303;62101;-83
2022/09/06 01:09:34;;;;;;;;;;;;;;;25.66;49.48;101593.42;104837;1304;62081;-83
2022/09/06 01:12:00;;;;;;;;;;;;;;;25.67;49.55;101595.71;104836;1304;73682;-82
2022/09/06 01:14:33;;;;;;;;;;;;;;;25.66;49.50;101600.09;104836;1305;62092;-82
2022/09/06 01:17:08;;;;;;;;;;;;;;;25.66;49.59;101599.56;104869;1304;62504;-83
2022/09/06 01:19:36;;;;;;;;;;;;;;;25.66;49.48;101602.80;104869;1305;63174;-83
2022/09/06 01:22:05;;;;;;;;;;;;;;;25.66;49.36;101601.00;104872;1305;72740;-82
2022/09/06 01:24:33;;;;;;;;;;;;;;;25.66;49.41;101597.25;104841;1305;76554;-82
2022/09/06 01:26:59;;;;;;;;;;;;;;;25.66;49.62;101595.27;104854;1304;62192;-82
2022/09/06 01:29:43;;;;;;;;;;;;;;;25.66;49.43;101598.16;104863;1303;62078;-83
2022/09/06 01:32:12;;;;;;;;;;;;;;;25.65;49.45;101600.34;104860;1303;72801;-82
2022/09/06 01:34:39;;;;;;;;;;;;;;;25.65;49.52;101600.02;104832;1305;75542;-83
2022/09/06 01:37:05;;;;;;;;;;;;;;;25.65;49.61;101598.22;104872;1305;61938;-82
2022/09/06 01:39:34;;;;;;;;;;;;;;;25.65;49.55;101601.27;104891;1305;62150;-82
2022/09/06 01:42:03;;;;;;;;;;;;;;;25.65;49.56;101599.50;104878;1305;72531;-82
2022/09/06 01:44:28;;;;;;;;;;;;;;;25.64;49.48;101600.23;104857;1305;75620;-84
2022/09/06 01:47:06;;;;;;;;;;;;;;;25.64;49.60;101604.04;104861;1305;62082;-82
2022/09/06 01:49:44;;;;;;;;;;;;;;;25.64;49.56;101600.27;104887;1303;62101;-84
2022/09/06 01:52:09;;;;;;;;;;;;;;;25.64;49.50;101601.18;104845;1305;72874;-83
2022/09/06 01:54:54;;;;;;;;;;;;;;;25.64;49.42;101596.51;104834;1304;62115;-82
2022/09/06 01:57:39;;;;;;;;;;;;;;;25.64;49.68;101592.72;104869;1305;62198;-83
2022/09/06 02:00:09;;;;;;;;;;;;;;;25.64;49.35;101589.49;104878;1304;62051;-83
2022/09/06 02:02:40;;;;;;;;;;;;;;;25.63;49.42;101587.02;104889;1306;72772;-82
2022/09/06 02:05:27;;;;;;;;;;;;;;;25.63;49.54;101588.08;104870;1304;76354;-83
2022/09/06 02:07:53;;;;;;;;;;;;;;;25.63;49.66;101581.25;104867;1305;61957;-83
2022/09/06 02:10:23;;;;;;;;;;;;;;;25.63;49.50;101583.64;104890;1304;61843;-83
2022/09/06 02:12:50;;;;;;;;;;;;;;;25.62;49.70;101580.58;104825;1305;72595;-82
2022/09/06 02:15:18;;;;;;;;;;;;;;;25.63;49.62;101578.97;104836;1303;76544;-84
2022/09/06 02:17:49;;;;;;;;;;;;;;;25.63;49.72;101575.55;104898;1305;61977;-82
2022/09/06 02:20:15;;;;;;;;;;;;;;;25.62;49.73;101574.46;104914;1305;62181;-81
2022/09/06 02:22:43;;;;;;;;;;;;;;;25.62;49.73;101573.75;104834;1304;62041;-82
2022/09/06 02:25:09;;;;;;;;;;;;;;;25.62;49.67;101569.09;104860;1305;75536;-82
2022/09/06 02:27:34;;;;;;;;;;;;;;;25.62;49.56;101570.71;104880;1305;62061;-83
2022/09/06 02:30:01;;;;;;;;;;;;;;;25.61;49.79;101569.28;104863;1305;62132;-83
2022/09/06 02:32:27;;;;;;;;;;;;;;;25.61;49.59;101570.56;104853;1304;62272;-83
2022/09/06 02:34:53;;;;;;;;;;;;;;;25.61;49.77;101565.70;104850;1304;62091;-83
2022/09/06 02:37:19;;;;;;;;;;;;;;;25.61;49.68;101565.36;104843;1305;62047;-83
2022/09/06 02:39:44;;;;;;;;;;;;;;;25.61;49.64;101565.73;104866;1304;62085;-82
2022/09/06 02:42:10;;;;;;;;;;;;;;;25.60;49.73;101563.76;104896;1303;62072;-83
2022/09/06 02:44:36;;;;;;;;;;;;;;;25.61;49.55;101571.67;104842;1305;73593;-82
2022/09/06 02:47:03;;;;;;;;;;;;;;;25.60;49.60;101571.73;104841;1305;62106;-82
2022/09/06 02:49:30;;;;;;;;;;;;;;;25.61;49.65;101575.84;104904;1303;61947;-82
2022/09/06 02:51:56;;;;;;;;;;;;;;;25.60;49.72;101576.26;104871;1304;61981;-83
2022/09/06 02:54:22;;;;;;;;;;;;;;;25.60;49.80;101573.71;104873;1305;61999;-84
2022/09/06 02:56:49;;;;;;;;;;;;;;;25.60;49.80;101571.38;104860;1305;62130;-83
2022/09/06 02:59:14;;;;;;;;;;;;;;;25.60;49.74;101572.63;104887;1303;62104;-83
2022/09/06 03:01:40;;;;;;;;;;;;;;;25.59;49.69;101572.85;104873;1306;62056;-83
2022/09/06 03:04:05;;;;;;;;;;;;;;;25.59;49.59;101569.41;104876;1305;62195;-83
2022/09/06 03:06:31;;;;;;;;;;;;;;;25.59;49.66;101569.61;103305;1304;2231747;-82
2022/09/06 03:08:58;;;;;;;;;;;;;;;25.59;49.65;101572.54;104893;1304;62165;-81
2022/09/06 03:11:24;;;;;;;;;;;;;;;25.58;49.82;101569.71;104897;1305;62179;-83
2022/09/06 03:13:51;;;;;;;;;;;;;;;25.59;49.68;101575.41;104839;1305;62062;-81
2022/09/06 03:16:17;;;;;;;;;;;;;;;25.58;49.80;101575.48;104874;1304;62174;-82
2022/09/06 03:18:42;;;;;;;;;;;;;;;25.58;49.68;101577.23;104820;1304;62021;-82
2022/09/06 03:21:08;;;;;;;;;;;;;;;25.58;49.81;101578.52;104896;1305;62052;-82
2022/09/06 03:23:34;;;;;;;;;;;;;;;25.58;49.78;101573.66;104869;1305;61864;-83
2022/09/06 03:25:59;;;;;;;;;;;;;;;25.58;49.80;101567.95;104885;1304;62185;-82
2022/09/06 03:28:25;;;;;;;;;;;;;;;25.58;49.73;101567.77;104857;1305;73715;-83
2022/09/06 03:30:50;;;;;;;;;;;;;;;25.57;49.79;101569.96;104880;1305;62199;-82
2022/09/06 03:33:16;;;;;;;;;;;;;;;25.57;49.72;101568.35;104878;1304;62947;-81
2022/09/06 03:35:46;;;;;;;;;;;;;;;25.57;49.68;101572.70;104846;1304;62065;-83
2022/09/06 03:38:12;;;;;;;;;;;;;;;25.54;49.59;101573.97;104871;1304;72888;-80
2022/09/06 03:40:37;;;;;;;;;;;;;;;25.52;49.63;101574.52;104869;1305;62094;-82
2022/09/06 03:43:03;;;;;;;;;;;;;;;25.50;49.48;101575.96;104887;1304;62090;-82
2022/09/06 03:45:28;;;;;;;;;;;;;;;25.47;49.27;101577.06;104903;1305;62087;-82
2022/09/06 03:47:54;;;;;;;;;;;;;;;25.46;49.17;101578.63;104884;1305;62153;-84
2022/09/06 03:50:20;;;;;;;;;;;;;;;25.44;48.97;101584.19;104888;1305;74011;-83
2022/09/06 03:52:46;;;;;;;;;;;;;;;25.42;48.93;101587.56;104849;1304;75268;-81
2022/09/06 03:55:15;;;;;;;;;;;;;;;25.40;48.75;101588.09;104864;1305;62096;-83
2022/09/06 03:57:40;;;;;;;;;;;;;;;25.39;48.55;101593.04;104897;1305;62079;-82
2022/09/06 04:00:06;;;;;;;;;;;;;;;25.37;48.44;101594.78;104880;1305;62526;-83
2022/09/06 04:02:32;;;;;;;;;;;;;;;25.36;48.32;101592.38;104881;1306;62032;-83
2022/09/06 04:04:58;;;;;;;;;;;;;;;25.34;48.22;101600.23;104840;1305;62098;-82
2022/09/06 04:07:23;;;;;;;;;;;;;;;25.33;48.04;101600.46;104840;1305;62235;-81
2022/09/06 04:09:50;;;;;;;;;;;;;;;25.32;48.11;101602.54;104908;1305;62107;-82
2022/09/06 04:12:15;;;;;;;;;;;;;;;25.30;47.94;101598.52;104854;1305;73191;-80
2022/09/06 04:14:41;;;;;;;;;;;;;;;25.30;47.79;101597.28;104880;1305;62112;-82
2022/09/06 04:17:07;;;;;;;;;;;;;;;25.29;47.59;101595.39;104893;1304;62714;-83
2022/09/06 04:19:33;;;;;;;;;;;;;;;25.29;47.49;101597.58;104897;1305;62091;-83
2022/09/06 04:21:58;;;;;;;;;;;;;;;25.29;47.54;101597.04;104856;1304;62226;-82
2022/09/06 04:24:24;;;;;;;;;;;;;;;25.29;47.52;101595.79;104654;1304;62158;-83
2022/09/06 04:26:49;;;;;;;;;;;;;;;25.29;47.49;101597.40;104628;1303;75563;-82
2022/09/06 04:29:16;;;;;;;;;;;;;;;25.29;47.47;101602.42;104653;1303;59824;-82
2022/09/06 04:31:42;;;;;;;;;;;;;;;25.29;47.44;101605.69;104623;1305;61978;-81
2022/09/06 04:34:08;;;;;;;;;;;;;;;25.29;47.39;101610.52;104610;1302;62583;-82
2022/09/06 04:36:34;;;;;;;;;;;;;;;25.28;47.41;101612.36;104381;1303;62191;-82
2022/09/06 04:39:00;;;;;;;;;;;;;;;25.28;47.29;101613.09;104634;1302;63013;-82
2022/09/06 04:41:25;;;;;;;;;;;;;;;25.26;47.25;101614.11;104347;1303;63285;-83
2022/09/06 04:43:51;;;;;;;;;;;;;;;25.26;47.15;101604.25;104327;1303;62194;-83
2022/09/06 04:46:20;;;;;;;;;;;;;;;25.23;47.01;101601.77;104062;1303;73715;-82
2022/09/06 04:48:47;;;;;;;;;;;;;;;25.17;47.00;101600.98;103807;1302;75663;-81
2022/09/06 04:51:13;;;;;;;;;;;;;;;25.12;46.86;101604.08;103965;1302;62072;-82
2022/09/06 04:53:38;;;;;;;;;;;;;;;25.09;46.80;101609.84;104023;1303;62082;-81
2022/09/06 04:56:04;;;;;;;;;;;;;;;25.06;46.79;101613.52;103741;1305;62171;-81
2022/09/06 04:58:30;;;;;;;;;;;;;;;25.03;46.88;101615.51;103843;1302;62088;-83
2022/09/06 05:00:56;;;;;;;;;;;;;;;25.00;46.75;101615.57;104076;1303;62005;-81
2022/09/06 05:03:21;;;;;;;;;;;;;;;24.94;46.51;101614.00;104046;1302;62092;-82
2022/09/06 05:05:47;;;;;;;;;;;;;;;24.88;46.49;101618.41;104412;1303;62112;-82
2022/09/06 05:08:12;;;;;;;;;;;;;;;24.84;46.55;101612.09;104061;1302;62123;-82
2022/09/06 05:10:38;;;;;;;;;;;;;;;24.81;46.51;101609.84;104096;1303;62071;-82
2022/09/06 05:13:03;;;;;;;;;;;;;;;24.82;46.56;101612.81;103963;1303;62109;-83
2022/09/06 05:15:29;;;;;;;;;;;;;;;24.87;46.70;101609.89;104128;1303;62074;-82
2022/09/06 05:18:00;;;;;;;;;;;;;;;24.90;46.61;101616.83;104040;1303;61363;-83
2022/09/06 05:20:25;;;;;;;;;;;;;;;24.94;46.52;101619.06;104116;1303;72708;-83
2022/09/06 05:22:52;;;;;;;;;;;;;;;24.98;46.53;101623.27;104154;1305;62231;-82
2022/09/06 05:25:17;;;;;;;;;;;;;;;25.01;46.33;101616.23;104144;1303;62090;-84
2022/09/06 05:27:43;;;;;;;;;;;;;;;25.04;46.42;101616.00;104287;1303;60190;-81
2022/09/06 05:30:09;;;;;;;;;;;;;;;25.07;46.23;101617.02;104094;1303;62150;-83
2022/09/06 05:32:34;;;;;;;;;;;;;;;25.09;46.25;101612.35;104197;1302;62069;-82
2022/09/06 05:35:00;;;;;;;;;;;;;;;25.11;46.17;101610.59;104272;1305;62359;-83
2022/09/06 05:37:25;;;;;;;;;;;;;;;25.13;46.17;101609.39;104019;1303;62304;-83
2022/09/06 05:39:51;;;;;;;;;;;;;;;25.14;46.22;101609.30;104040;1302;62173;-82
2022/09/06 05:42:20;;;;;;;;;;;;;;;25.15;46.09;101611.23;104052;1303;60354;-81
2022/09/06 05:44:45;;;;;;;;;;;;;;;25.16;45.97;101615.25;104182;1302;74427;-85
2022/09/06 05:47:11;;;;;;;;;;;;;;;25.17;46.10;101620.77;104207;1303;62155;-82
2022/09/06 05:49:37;;;;;;;;;;;;;;;25.16;45.77;101620.89;104321;1302;62098;-83
2022/09/06 05:52:02;;;;;;;;;;;;;;;25.15;45.80;101622.92;104169;1305;62076;-81
2022/09/06 05:54:28;;;;;;;;;;;;;;;25.13;45.86;101619.50;104046;1302;63752;-83
2022/09/06 05:56:54;;;;;;;;;;;;;;;25.10;45.80;101615.90;104068;1302;75529;-85
2022/09/06 05:59:20;;;;;;;;;;;;;;;25.03;45.70;101611.01;104016;1303;62048;-84
2022/09/06 06:01:49;;;;;;;;;;;;;;;24.99;45.65;101609.52;104025;1302;60216;-83
2022/09/06 06:04:14;;;;;;;;;;;;;;;24.96;45.62;101605.43;103946;1303;72954;-83
2022/09/06 06:06:40;;;;;;;;;;;;;;;24.98;45.82;101607.48;103948;1303;62103;-81
2022/09/06 06:09:05;;;;;;;;;;;;;;;24.99;45.79;101610.80;104228;1303;62187;-83
2022/09/06 06:11:31;;;;;;;;;;;;;;;25.00;45.93;101611.77;104156;1305;62141;-82
2022/09/06 06:13:57;;;;;;;;;;;;;;;25.01;45.75;101616.55;104246;1302;62177;-83
2022/09/06 06:16:24;;;;;;;;;;;;;;;25.03;45.66;101613.75;104203;1303;72855;-82
2022/09/06 06:18:50;;;;;;;;;;;;;;;25.05;45.60;101614.48;104351;1304;62071;-82
2022/09/06 06:21:19;;;;;;;;;;;;;;;25.06;45.61;101614.23;104332;1303;62274;-81
2022/09/06 06:23:46;;;;;;;;;;;;;;;25.07;45.43;101613.27;104153;1305;62042;-82
2022/09/06 06:26:11;;;;;;;;;;;;;;;25.07;45.49;101610.88;104214;1304;62078;-82
2022/09/06 06:28:37;;;;;;;;;;;;;;;25.08;45.55;101610.63;104315;1305;62188;-82
2022/09/06 06:31:03;;;;;;;;;;;;;;;25.09;45.43;101611.48;104297;1305;62075;-83
2022/09/06 06:33:29;;;;;;;;;;;;;;;25.08;45.52;101611.55;104256;1302;62037;-83
2022/09/06 06:35:55;;;;;;;;;;;;;;;25.09;45.45;101609.70;104215;1302;62100;-82
2022/09/06 06:38:21;;;;;;;;;;;;;;;25.09;45.38;101609.98;104151;1303;62786;-82
2022/09/06 06:40:46;;;;;;;;;;;;;;;25.10;45.43;101610.88;104312;1305;62191;-82
2022/09/06 06:43:12;;;;;;;;;;;;;;;25.10;45.40;101612.48;104270;1302;62100;-83
2022/09/06 06:45:38;;;;;;;;;;;;;;;25.10;45.37;101616.05;104263;1302;62288;-83
2022/09/06 06:48:04;;;;;;;;;;;;;;;25.10;45.36;101617.86;104189;1305;62099;-82
2022/09/06 06:50:29;;;;;;;;;;;;;;;25.11;45.35;101623.75;104227;1303;62136;-83
2022/09/06 06:52:55;;;;;;;;;;;;;;;25.12;45.27;101623.67;103846;1303;62132;-84
2022/09/06 06:55:20;;;;;;;;;;;;;;;25.08;45.12;101619.48;104193;1302;62065;-83
2022/09/06 06:57:46;;;;;;;;;;;;;;;25.00;45.16;101617.04;104212;1303;62206;-82
2022/09/06 07:00:12;;;;;;;;;;;;;;;24.94;45.33;101620.73;104032;1304;62082;-83
2022/09/06 07:02:37;;;;;;;;;;;;;;;24.92;45.37;101622.80;104053;1302;62168;-83
2022/09/06 07:05:03;;;;;;;;;;;;;;;24.89;45.38;101626.31;104033;1305;62383;-82
2022/09/06 07:07:29;;;;;;;;;;;;;;;24.78;45.35;101624.75;104011;1303;62000;-83
2022/09/06 07:09:54;;;;;;;;;;;;;;;24.75;45.27;101627.36;104015;1303;62141;-83
2022/09/06 07:12:20;;;;;;;;;;;;;;;24.72;45.36;101630.23;104219;1300;62087;-83
2022/09/06 07:14:46;;;;;;;;;;;;;;;24.71;45.38;101633.76;104229;1303;62062;-81
2022/09/06 07:17:11;;;;;;;;;;;;;;;24.72;45.32;101638.68;104381;1303;62120;-83
2022/09/06 07:19:37;;;;;;;;;;;;;;;24.78;45.41;101638.14;104222;1303;62159;-83
2022/09/06 07:22:02;;;;;;;;;;;;;;;24.84;45.34;101636.39;103983;1302;62068;-83
2022/09/06 07:24:28;;;;;;;;;;;;;;;24.89;45.23;101638.02;103996;1303;62097;-83
2022/09/06 07:26:53;;;;;;;;;;;;;;;24.90;45.22;101634.14;103957;1305;61957;-83
2022/09/06 07:29:19;;;;;;;;;;;;;;;24.93;45.15;101636.45;104061;1302;62103;-82
2022/09/06 07:31:45;;;;;;;;;;;;;;;24.96;45.25;101636.27;103942;1305;62189;-82
2022/09/06 07:34:10;;;;;;;;;;;;;;;24.98;45.17;101639.90;103938;1302;62158;-84
2022/09/06 07:36:36;;;;;;;;;;;;;;;24.98;45.04;101638.25;103866;1305;62145;-83
2022/09/06 07:39:01;;;;;;;;;;;;;;;24.96;45.14;101636.98;104029;1305;77010;-81
2022/09/06 07:41:27;;;;;;;;;;;;;;;24.98;44.99;101637.55;103980;1303;62176;-82
2022/09/06 07:43:55;;;;;;;;;;;;;;;24.99;44.94;101640.03;103873;1302;62203;-82
2022/09/06 07:46:21;;;;;;;;;;;;;;;25.00;44.84;101639.02;103949;1303;62090;-82
2022/09/06 07:48:48;;;;;;;;;;;;;;;25.01;44.94;101645.06;103909;1303;62068;-82
2022/09/06 07:51:18;;;;;;;;;;;;;;;25.01;44.81;101647.70;105467;1303;60301;-83
2022/09/06 07:53:44;;;;;;;;;;;;;;;25.01;44.64;101650.08;105451;1302;60683;-84
2022/09/06 07:56:10;;;;;;;;;;;;;;;24.97;44.67;101650.23;105489;1302;72835;-81
2022/09/06 07:58:36;;;;;;;;;;;;;;;24.92;44.56;101650.77;105387;1305;60555;-82
2022/09/06 08:01:17;;;;;;;;;;;;;;;24.84;44.66;101649.52;105382;1303;59977;-83
2022/09/06 08:03:43;;;;;;;;;;;;;;;24.83;44.43;101647.44;105076;1302;63797;-82
2022/09/06 08:06:08;;;;;;;;;;;;;;;24.82;44.44;101647.02;103810;1305;62233;-82
2022/09/06 08:08:34;;;;;;;;;;;;;;;24.79;44.09;101648.45;103987;1303;62091;-83
2022/09/06 08:11:00;;;;;;;;;;;;;;;24.78;44.28;101645.16;103902;1302;62984;-82
2022/09/06 08:13:25;;;;;;;;;;;;;;;24.78;44.19;101643.72;103954;1303;62097;-83
2022/09/06 08:16:00;;;;;;;;;;;;;;;24.76;43.99;101641.33;103959;1302;63460;-82
2022/09/06 08:18:26;;;;;;;;;;;;;;;24.78;44.06;101643.01;105345;1303;73554;-83
2022/09/06 08:20:52;;;;;;;;;;;;;;;24.79;44.00;101643.29;105500;1305;60117;-83
2022/09/06 08:23:17;;;;;;;;;;;;;;;24.80;43.98;101646.45;105558;1303;59931;-83
2022/09/06 08:25:43;;;;;;;;;;;;;;;24.82;43.97;101645.91;105553;1305;60107;-82
2022/09/06 08:28:08;;;;;;;;;;;;;;;24.85;44.06;101646.55;105684;1302;59952;-83
2022/09/06 08:30:34;;;;;;;;;;;;;;;24.88;43.95;101640.95;104702;1304;63391;-82
2022/09/06 08:33:00;;;;;;;;;;;;;;;24.93;43.98;101636.98;104030;1303;62864;-82
2022/09/06 08:35:26;;;;;;;;;;;;;;;24.98;44.03;101637.91;103969;1302;62169;-82
2022/09/06 08:37:52;;;;;;;;;;;;;;;25.02;44.02;101637.06;104130;1302;62639;-82
2022/09/06 08:40:19;;;;;;;;;;;;;;;25.05;44.05;101634.10;104200;1302;62107;-83
2022/09/06 08:42:45;;;;;;;;;;;;;;;25.07;44.07;101633.93;104265;1303;62170;-83
2022/09/06 08:45:11;;;;;;;;;;;;;;;25.07;43.94;101627.14;104121;1302;62069;-83
2022/09/06 08:47:36;;;;;;;;;;;;;;;25.07;43.95;101626.39;104906;1303;62169;-82
2022/09/06 08:50:03;;;;;;;;;;;;;;;25.08;43.83;101623.80;104253;1303;62133;-82
2022/09/06 08:52:32;;;;;;;;;;;;;;;25.07;43.79;101620.29;103968;1303;73751;-82
2022/09/06 08:55:21;;;;;;;;;;;;;;;25.06;43.82;101617.14;104024;1303;75642;-82
2022/09/06 08:57:58;;;;;;;;;;;;;;;25.04;43.71;101617.43;103966;1303;61894;-83
2022/09/06 09:00:24;;;;;;;;;;;;;;;25.01;43.39;101613.36;103926;1305;60941;-82
2022/09/06 09:02:59;;;;;;;;;;;;;;;24.94;43.46;101608.45;103942;1303;60755;-83
2022/09/06 09:05:28;;;;;;;;;;;;;;;24.93;43.24;101601.86;103829;1303;75648;-81
2022/09/06 09:08:03;;;;;;;;;;;;;;;24.91;43.29;101596.03;103794;1304;62038;-82
2022/09/06 09:10:29;;;;;;;;;;;;;;;24.89;43.08;101590.27;103981;1303;62028;-81
2022/09/06 09:12:55;;;;;;;;;;;;;;;24.89;43.01;101592.10;103926;1302;62217;-82
2022/09/06 09:15:21;;;;;;;;;;;;;;;24.84;42.87;101590.67;103867;1303;62094;-82
2022/09/06 09:17:47;;;;;;;;;;;;;;;24.83;42.99;101588.61;103923;1305;62142;-82
2022/09/06 09:20:13;;;;;;;;;;;;;;;24.86;43.00;101590.36;104043;1303;62311;-83
2022/09/06 09:22:38;;;;;;;;;;;;;;;24.87;42.64;101591.14;104031;1303;62046;-82
2022/09/06 09:25:04;;;;;;;;;;;;;;;24.90;42.71;101588.44;103911;1305;62877;-82
2022/09/06 09:27:30;;;;;;;;;;;;;;;24.92;42.53;101583.96;104057;1303;76451;-83
2022/09/06 09:29:56;;;;;;;;;;;;;;;24.92;42.56;101581.75;104154;1305;62155;-84
2022/09/06 09:32:33;;;;;;;;;;;;;;;24.91;42.28;101575.52;104096;1304;62048;-81
2022/09/06 09:35:15;;;;;;;;;;;;;;;24.92;42.20;101577.50;104145;1303;73926;-81
2022/09/06 09:37:41;;;;;;;;;;;;;;;24.92;42.09;101579.08;105039;1302;76625;-82
2022/09/06 09:40:11;;;;;;;;;;;;;;;24.92;41.92;101573.14;103971;1305;62294;-85
2022/09/06 09:42:38;;;;;;;;;;;;;;;24.92;41.66;101572.39;104052;1305;61986;-82
2022/09/06 09:45:05;;;;;;;;;;;;;;;24.95;41.63;101568.58;104138;1303;62044;-83
2022/09/06 09:47:31;;;;;;;;;;;;;;;24.96;41.54;101570.50;104173;1306;75635;-81
2022/09/06 09:49:57;;;;;;;;;;;;;;;24.96;41.47;101567.84;104943;1303;62534;-82
2022/09/06 09:52:28;;;;;;;;;;;;;;;24.92;41.48;101563.44;104312;1303;62097;-82
2022/09/06 09:54:56;;;;;;;;;;;;;;;24.92;41.30;101562.30;105719;1303;73816;-82
2022/09/06 09:57:23;;;;;;;;;;;;;;;24.95;41.45;101561.04;104770;1302;66986;-82
2022/09/06 09:59:59;;;;;;;;;;;;;;;24.98;41.20;101561.55;104408;1303;62097;-82
2022/09/06 10:02:34;;;;;;;;;;;;;;;25.00;41.09;101561.23;104128;1303;61987;-82
2022/09/06 10:05:01;;;;;;;;;;;;;;;24.91;40.99;101555.73;105619;1303;73866;-83
2022/09/06 10:07:26;;;;;;;;;;;;;;;24.81;40.78;101551.44;105547;1305;68141;-82
2022/09/06 10:10:03;;;;;;;;;;;;;;;24.76;40.81;101547.52;104980;1303;60308;-82
2022/09/06 10:12:29;;;;;;;;;;;;;;;24.76;40.72;101542.12;104083;1303;62206;-82
2022/09/06 10:14:54;;;;;;;;;;;;;;;24.77;40.59;101539.19;104087;1303;64769;-83
2022/09/06 10:17:30;;;;;;;;;;;;;;;24.79;40.52;101537.96;104252;1304;62219;-83
2022/09/06 10:19:58;;;;;;;;;;;;;;;24.81;40.42;101536.72;105380;1305;60076;-83
2022/09/06 10:22:27;;;;;;;;;;;;;;;24.78;40.41;101531.56;104310;1305;62069;-83
2022/09/06 10:25:12;;;;;;;;;;;;;;;24.80;40.24;101527.27;104320;1303;71882;-82
2022/09/06 10:27:39;;;;;;;;;;;;;;;24.85;40.28;101527.43;104322;1305;75819;-83
2022/09/06 10:30:08;;;;;;;;;;;;;;;24.86;40.22;101528.96;104220;1305;62110;-81
2022/09/06 10:32:41;;;;;;;;;;;;;;;24.83;40.09;101524.88;104128;1305;63038;-84
2022/09/06 10:35:25;;;;;;;;;;;;;;;24.81;40.07;101527.73;104064;1305;73869;-84
2022/09/06 10:37:57;;;;;;;;;;;;;;;24.74;39.98;101523.53;104269;1303;75608;-84
2022/09/06 10:40:46;;;;;;;;;;;;;;;24.72;39.81;101517.77;104200;1303;62099;-83
2022/09/06 10:43:17;;;;;;;;;;;;;;;24.72;39.71;101521.89;104406;1303;62114;-82
2022/09/06 10:46:01;;;;;;;;;;;;;;;24.68;39.63;101516.97;104343;1303;74176;-84
2022/09/06 10:48:34;;;;;;;;;;;;;;;24.70;39.63;101517.00;104205;1302;74964;-84
2022/09/06 10:51:02;;;;;;;;;;;;;;;24.75;39.71;101519.88;103963;1305;62022;-83
2022/09/06 10:53:36;;;;;;;;;;;;;;;24.77;39.58;101518.84;104228;1305;62091;-84
2022/09/06 10:56:06;;;;;;;;;;;;;;;24.78;39.47;101515.20;103908;1305;71418;-82
2022/09/06 10:58:44;;;;;;;;;;;;;;;24.76;39.48;101519.44;105293;1305;75635;-83
2022/09/06 11:01:11;;;;;;;;;;;;;;;24.71;39.35;101517.50;105350;1303;60189;-82
2022/09/06 11:03:39;;;;;;;;;;;;;;;24.70;39.54;101517.70;104231;1305;62278;-82
2022/09/06 11:06:08;;;;;;;;;;;;;;;24.74;39.39;101515.79;103879;1306;73212;-82
2022/09/06 11:08:45;;;;;;;;;;;;;;;24.75;39.28;101513.72;105549;1305;75849;-82
2022/09/06 11:11:14;;;;;;;;;;;;;;;24.76;39.27;101513.12;105524;1305;60676;-82
2022/09/06 11:13:40;;;;;;;;;;;;;;;24.78;39.23;101507.38;105564;1305;60259;-82
2022/09/06 11:16:28;;;;;;;;;;;;;;;24.82;39.26;101505.66;105606;1303;60266;-82
2022/09/06 11:19:24;;;;;;;;;;;;;;;24.87;39.19;101504.22;105563;1305;66988;-83
2022/09/06 11:21:56;;;;;;;;;;;;;;;24.87;39.13;101500.44;105239;1308;60503;-83
2022/09/06 11:24:27;;;;;;;;;;;;;;;24.84;39.02;101498.47;105107;1310;60557;-83
2022/09/06 11:26:59;;;;;;;;;;;;;;;24.82;38.97;101497.19;105221;1308;64284;-82
2022/09/06 11:29:25;;;;;;;;;;;;;;;24.85;39.07;101494.29;105080;1309;65738;-83
2022/09/06 11:31:54;;;;;;;;;;;;;;;24.88;39.04;101495.48;105206;1308;60077;-83
2022/09/06 11:34:20;;;;;;;;;;;;;;;24.92;39.10;101494.06;104775;1308;62059;-80
2022/09/06 11:36:49;;;;;;;;;;;;;;;24.95;39.01;101494.75;103846;1308;62292;-83
2022/09/06 11:39:22;;;;;;;;;;;;;;;24.86;38.80;101483.94;103959;1308;75722;-82
2022/09/06 11:41:48;;;;;;;;;;;;;;;24.76;38.73;101481.48;103975;1309;62101;-84
2022/09/06 11:44:19;;;;;;;;;;;;;;;24.72;38.55;101480.84;104001;1309;62064;-83
2022/09/06 11:46:47;;;;;;;;;;;;;;;24.64;38.57;101479.48;103934;1310;72902;-82
2022/09/06 11:49:15;;;;;;;;;;;;;;;24.65;38.46;101481.21;103966;1309;74478;-82
2022/09/06 11:51:42;;;;;;;;;;;;;;;24.69;38.55;101479.16;104143;1308;62408;-81
2022/09/06 11:54:13;;;;;;;;;;;;;;;24.70;38.46;101476.34;104097;1309;62281;-84
2022/09/06 11:56:58;;;;;;;;;;;;;;;24.72;38.41;101475.48;104990;1308;72810;-83
2022/09/06 11:59:26;;;;;;;;;;;;;;;24.73;38.34;101476.27;104224;1305;75572;-83
2022/09/06 12:01:55;;;;;;;;;;;;;;;24.76;38.35;101471.41;104160;1302;62239;-83
2022/09/06 12:04:21;;;;;;;;;;;;;;;24.81;38.35;101469.96;104126;1304;62251;-83
2022/09/06 12:07:06;;;;;;;;;;;;;;;24.82;38.27;101467.35;104719;1305;62147;-82
2022/09/06 12:09:32;;;;;;;;;;;;;;;24.76;38.18;101459.15;104351;1306;75375;-82
2022/09/06 12:11:58;;;;;;;;;;;;;;;24.75;38.36;101457.23;104034;1305;61999;-82
2022/09/06 12:14:28;;;;;;;;;;;;;;;24.76;38.26;101456.99;104146;1305;62055;-82
2022/09/06 12:17:00;;;;;;;;;;;;;;;24.80;38.39;101452.02;104214;1305;74132;-82
2022/09/06 12:19:45;;;;;;;;;;;;;;;24.86;38.32;101444.91;104465;1304;75490;-82
2022/09/06 12:22:39;;;;;;;;;;;;;;;24.90;38.25;101441.48;104445;1305;60711;-83
2022/09/06 12:25:15;;;;;;;;;;;;;;;24.95;38.31;101436.83;104421;1305;62337;-84
2022/09/06 12:27:50;;;;;;;;;;;;;;;24.99;38.45;101433.47;104671;1305;73911;-83
2022/09/06 12:30:29;;;;;;;;;;;;;;;25.01;38.33;101429.98;104700;1305;76953;-82